createdAt,value
2023-06-29T00:00:51.925Z,96181.22
2023-06-29T00:03:12.960Z,96186.13
2023-06-29T00:05:33.922Z,96183.38
2023-06-29T00:07:54.681Z,96188.75
2023-06-29T00:10:15.089Z,96187.97
2023-06-29T00:12:36.132Z,96188.75
2023-06-29T00:14:56.592Z,96184.75
2023-06-29T00:17:17.712Z,96180.59
2023-06-29T00:19:38.469Z,96190.50
2023-06-29T00:21:59.176Z,96179.78
2023-06-29T00:24:19.584Z,96182.53
2023-06-29T00:26:41.091Z,96185.03
2023-06-29T00:29:01.811Z,96163.78
2023-06-29T00:31:25.199Z,96163.63
2023-06-29T00:33:46.047Z,96169.88
2023-06-29T00:36:06.472Z,96168.63
2023-06-29T00:38:26.943Z,96176.41
2023-06-29T00:40:49.348Z,96168.16
2023-06-29T00:43:10.095Z,96166.50
2023-06-29T00:45:31.082Z,96170.72
2023-06-29T00:47:52.612Z,96176.94
2023-06-29T00:50:14.264Z,96178.94
2023-06-29T00:52:35.947Z,96175.56
2023-06-29T00:54:57.626Z,96182.72
2023-06-29T00:57:18.381Z,96170.50
2023-06-29T00:59:38.903Z,96174.78
2023-06-29T01:01:59.802Z,96168.97
2023-06-29T01:04:26.122Z,96170.81
2023-06-29T01:07:05.863Z,96169.75
2023-06-29T01:09:27.412Z,96171.72
2023-06-29T01:11:50.308Z,96163.63
2023-06-29T01:14:14.923Z,96159.47
2023-06-29T01:16:36.997Z,96170.44
2023-06-29T01:18:58.459Z,96160.38
2023-06-29T01:21:19.913Z,96158.97
2023-06-29T01:23:41.303Z,96154.03
2023-06-29T01:26:02.110Z,96154.50
2023-06-29T01:28:23.160Z,96156.03
2023-06-29T01:30:50.688Z,96151.75
2023-06-29T01:33:12.288Z,96151.44
2023-06-29T01:35:33.413Z,96147.16
2023-06-29T01:38:03.145Z,96147.47
2023-06-29T01:40:29.236Z,96143.78
2023-06-29T01:42:51.378Z,96137.78
2023-06-29T01:45:13.242Z,96143.25
2023-06-29T01:47:35.005Z,96140.19
2023-06-29T01:49:56.506Z,96137.56
2023-06-29T01:52:17.480Z,96138.66
2023-06-29T01:54:38.128Z,96135.91
2023-06-29T01:56:59.124Z,96138.09
2023-06-29T01:59:19.819Z,96130.75
2023-06-29T02:01:40.302Z,96129.97
2023-06-29T02:04:00.848Z,96128.44
2023-06-29T02:06:21.236Z,96132.53
2023-06-29T02:08:43.586Z,96137.91
2023-06-29T02:11:04.708Z,96140.97
2023-06-29T02:13:25.502Z,96132.28
2023-06-29T02:15:46.365Z,96134.91
2023-06-29T02:18:07.028Z,96128.00
2023-06-29T02:20:27.335Z,96122.94
2023-06-29T02:22:47.723Z,96126.91
2023-06-29T02:25:11.756Z,96120.59
2023-06-29T02:27:32.286Z,96121.03
2023-06-29T02:29:52.766Z,96113.34
2023-06-29T02:32:13.184Z,96117.75
2023-06-29T02:34:33.562Z,96115.59
2023-06-29T02:36:54.272Z,96119.22
2023-06-29T02:39:15.054Z,96114.75
2023-06-29T02:41:35.461Z,96107.72
2023-06-29T02:43:55.862Z,96104.53
2023-06-29T02:46:17.157Z,96095.16
2023-06-29T02:48:37.816Z,96101.47
2023-06-29T02:50:58.259Z,96111.88
2023-06-29T02:53:18.802Z,96117.38
2023-06-29T02:55:39.314Z,96111.38
2023-06-29T02:57:59.810Z,96115.13
2023-06-29T03:00:20.412Z,96113.59
2023-06-29T03:02:40.753Z,96102.16
2023-06-29T03:05:01.417Z,96111.25
2023-06-29T03:07:21.897Z,96103.47
2023-06-29T03:09:42.537Z,96107.53
2023-06-29T03:12:02.916Z,96099.31
2023-06-29T03:14:23.525Z,96103.13
2023-06-29T03:16:44.239Z,96106.78
2023-06-29T03:19:05.137Z,96106.25
2023-06-29T03:21:25.449Z,96118.97
2023-06-29T03:23:45.793Z,96112.06
2023-06-29T03:26:06.312Z,96110.84
2023-06-29T03:28:26.802Z,96112.00
2023-06-29T03:30:47.339Z,96099.28
2023-06-29T03:33:08.187Z,96109.16
2023-06-29T03:35:29.035Z,96107.97
2023-06-29T03:37:49.715Z,96103.25
2023-06-29T03:40:10.774Z,96110.56
2023-06-29T03:42:31.115Z,96109.88
2023-06-29T03:44:51.465Z,96110.97
2023-06-29T03:47:11.940Z,96110.84
2023-06-29T03:49:32.475Z,96109.31
2023-06-29T03:51:52.988Z,96092.66
2023-06-29T03:54:13.383Z,96108.69
2023-06-29T03:56:34.071Z,96109.72
2023-06-29T03:58:54.814Z,96097.19
2023-06-29T04:01:15.122Z,96105.94
2023-06-29T04:03:35.547Z,96097.84
2023-06-29T04:05:56.415Z,96097.91
2023-06-29T04:08:16.969Z,96100.50
2023-06-29T04:10:37.411Z,96089.41
2023-06-29T04:12:58.218Z,96099.06
2023-06-29T04:15:18.665Z,96085.66
2023-06-29T04:17:39.036Z,96088.19
2023-06-29T04:19:59.432Z,96096.38
2023-06-29T04:22:19.730Z,96093.50
2023-06-29T04:24:40.091Z,96095.22
2023-06-29T04:27:01.487Z,96092.81
2023-06-29T04:29:22.449Z,96090.19
2023-06-29T04:31:42.978Z,96084.88
2023-06-29T04:34:03.901Z,96091.44
2023-06-29T04:36:25.643Z,96098.94
2023-06-29T04:38:47.125Z,96099.59
2023-06-29T04:41:08.341Z,96088.19
2023-06-29T04:43:28.755Z,96098.78
2023-06-29T04:45:49.342Z,96089.50
2023-06-29T04:48:10.961Z,96084.81
2023-06-29T04:50:36.502Z,96083.66
2023-06-29T04:52:58.394Z,96082.31
2023-06-29T04:55:18.803Z,96088.75
2023-06-29T04:57:39.472Z,96091.78
2023-06-29T05:00:00.101Z,96086.88
2023-06-29T05:02:20.431Z,96087.03
2023-06-29T05:04:40.821Z,96092.44
2023-06-29T05:07:01.302Z,96096.25
2023-06-29T05:09:21.904Z,96085.25
2023-06-29T05:11:42.878Z,96088.94
2023-06-29T05:14:03.410Z,96089.09
2023-06-29T05:16:23.975Z,96088.03
2023-06-29T05:18:44.427Z,96078.69
2023-06-29T05:21:05.133Z,96085.88
2023-06-29T05:23:25.792Z,96085.25
2023-06-29T05:25:46.928Z,96078.34
2023-06-29T05:28:07.498Z,96095.94
2023-06-29T05:30:28.105Z,96080.91
2023-06-29T05:32:48.710Z,96093.75
2023-06-29T05:35:09.520Z,96083.63
2023-06-29T05:37:34.634Z,96082.66
2023-06-29T05:39:56.664Z,96093.34
2023-06-29T05:42:17.361Z,96088.72
2023-06-29T05:44:37.596Z,96082.56
2023-06-29T05:46:57.993Z,96087.91
2023-06-29T05:49:18.391Z,96080.38
2023-06-29T05:51:38.649Z,96078.16
2023-06-29T05:53:59.174Z,96087.13
2023-06-29T05:56:20.204Z,96090.13
2023-06-29T05:58:40.609Z,96088.72
2023-06-29T06:01:02.248Z,96082.97
2023-06-29T06:03:24.671Z,96082.91
2023-06-29T06:05:45.633Z,96078.22
2023-06-29T06:08:05.945Z,96070.53
2023-06-29T06:10:26.466Z,96085.44
2023-06-29T06:12:47.117Z,96076.94
2023-06-29T06:15:12.059Z,96065.22
2023-06-29T06:17:32.900Z,96070.47
2023-06-29T06:19:55.574Z,96070.47
2023-06-29T06:22:16.441Z,96071.91
2023-06-29T06:24:37.613Z,96074.41
2023-06-29T06:26:58.351Z,96075.97
2023-06-29T06:29:18.701Z,96067.56
2023-06-29T06:31:39.313Z,96071.94
2023-06-29T06:34:00.245Z,96072.38
2023-06-29T06:36:21.532Z,96064.00
2023-06-29T06:38:49.962Z,96069.75
2023-06-29T06:41:11.912Z,96072.69
2023-06-29T06:43:32.444Z,96072.81
2023-06-29T06:45:53.805Z,96067.38
2023-06-29T06:48:14.490Z,96075.59
2023-06-29T06:50:35.207Z,96069.00
2023-06-29T06:52:55.710Z,96071.41
2023-06-29T06:55:16.708Z,96071.13
2023-06-29T06:57:37.755Z,96065.00
2023-06-29T06:59:58.119Z,96058.41
2023-06-29T07:02:18.761Z,96071.69
2023-06-29T07:04:39.829Z,96056.41
2023-06-29T07:07:00.412Z,96073.13
2023-06-29T07:09:21.024Z,96065.22
2023-06-29T07:11:41.937Z,96062.72
2023-06-29T07:14:02.673Z,96064.03
2023-06-29T07:16:25.917Z,96057.25
2023-06-29T07:21:31.826Z,96055.13
2023-06-29T07:26:15.881Z,96056.16
2023-06-29T07:28:36.426Z,96057.94
2023-06-29T07:30:57.214Z,96048.09
2023-06-29T07:33:18.219Z,96035.94
2023-06-29T07:35:38.829Z,96047.56
2023-06-29T07:37:59.364Z,96041.72
2023-06-29T07:40:21.076Z,96044.50
2023-06-29T07:42:41.865Z,96031.06
2023-06-29T07:45:02.571Z,96029.00
2023-06-29T07:47:24.096Z,96031.00
2023-06-29T07:49:44.998Z,96034.19
2023-06-29T07:52:05.890Z,96027.56
2023-06-29T07:54:28.240Z,96040.88
2023-06-29T07:59:12.534Z,96027.25
2023-06-29T08:01:35.401Z,96033.03
2023-06-29T08:04:02.581Z,96032.28
2023-06-29T08:08:48.210Z,96030.34
2023-06-29T08:11:13.490Z,96031.75
2023-06-29T08:13:34.073Z,96022.94
2023-06-29T08:15:54.650Z,96016.47
2023-06-29T08:18:14.987Z,96017.84
2023-06-29T08:20:35.468Z,96022.91
2023-06-29T08:22:56.483Z,96016.94
2023-06-29T08:25:17.322Z,96017.28
2023-06-29T08:27:37.829Z,96023.78
2023-06-29T08:29:57.994Z,96004.19
2023-06-29T08:32:18.803Z,96013.66
2023-06-29T08:34:39.636Z,96004.44
2023-06-29T08:37:00.091Z,96013.22
2023-06-29T08:39:20.776Z,96014.34
2023-06-29T08:41:41.577Z,96013.38
2023-06-29T08:44:05.278Z,96013.53
2023-06-29T08:46:28.449Z,96012.66
2023-06-29T08:48:49.878Z,96014.47
2023-06-29T08:51:11.830Z,96003.63
2023-06-29T08:53:32.875Z,96009.53
2023-06-29T08:55:54.491Z,96008.38
2023-06-29T08:58:15.243Z,96003.09
2023-06-29T09:00:37.255Z,96005.94
2023-06-29T09:02:57.772Z,96001.59
2023-06-29T09:05:18.462Z,96001.22
2023-06-29T09:07:42.230Z,95996.63
2023-06-29T09:10:05.531Z,96002.31
2023-06-29T09:12:28.676Z,95988.34
2023-06-29T09:14:49.468Z,95992.69
2023-06-29T09:17:15.633Z,95983.09
2023-06-29T09:19:36.023Z,95975.88
2023-06-29T09:21:58.135Z,95981.00
2023-06-29T09:24:19.534Z,95984.88
2023-06-29T09:26:40.330Z,95976.44
2023-06-29T09:29:01.974Z,95978.94
2023-06-29T09:31:22.804Z,95975.81
2023-06-29T09:33:43.328Z,95969.81
2023-06-29T09:36:09.528Z,95969.75
2023-06-29T09:38:31.130Z,95970.22
2023-06-29T09:40:53.437Z,95967.09
2023-06-29T09:43:22.421Z,95963.44
2023-06-29T09:45:43.072Z,95962.97
2023-06-29T09:50:28.172Z,95958.03
2023-06-29T09:52:54.878Z,95965.25
2023-06-29T09:55:17.045Z,95960.06
2023-06-29T09:57:40.426Z,95967.22
2023-06-29T10:00:02.166Z,95954.13
2023-06-29T10:02:22.585Z,95951.22
2023-06-29T10:04:43.527Z,95962.25
2023-06-29T10:07:13.162Z,95951.09
2023-06-29T10:09:39.139Z,95948.75
2023-06-29T10:12:00.893Z,95950.59
2023-06-29T10:14:23.156Z,95950.31
2023-06-29T10:16:47.213Z,95952.50
2023-06-29T10:19:16.521Z,95949.53
2023-06-29T10:21:37.537Z,95951.50
2023-06-29T10:23:58.838Z,95952.97
2023-06-29T10:26:19.665Z,95941.25
2023-06-29T10:28:41.244Z,95952.78
2023-06-29T10:31:01.639Z,95946.53
2023-06-29T10:33:26.279Z,95932.91
2023-06-29T10:36:02.675Z,95932.16
2023-06-29T10:38:28.553Z,95934.66
2023-06-29T10:40:50.104Z,95929.91
2023-06-29T10:43:10.468Z,95931.66
2023-06-29T10:45:32.178Z,95931.94
2023-06-29T10:48:01.849Z,95926.41
2023-06-29T10:50:41.511Z,95932.03
2023-06-29T10:53:04.390Z,95928.31
2023-06-29T10:55:27.112Z,95928.00
2023-06-29T10:57:49.680Z,95937.72
2023-06-29T11:00:10.658Z,95922.13
2023-06-29T11:02:32.038Z,95924.50
2023-06-29T11:04:53.458Z,95923.28
2023-06-29T11:07:15.210Z,95925.34
2023-06-29T11:09:35.956Z,95920.66
2023-06-29T11:11:56.629Z,95928.25
2023-06-29T11:14:18.466Z,95913.91
2023-06-29T11:16:40.442Z,95913.38
2023-06-29T11:19:04.288Z,95910.91
2023-06-29T11:21:28.192Z,95908.44
2023-06-29T11:23:52.464Z,95902.84
2023-06-29T11:26:13.061Z,95898.97
2023-06-29T11:28:34.154Z,95890.31
2023-06-29T11:30:56.312Z,95892.63
2023-06-29T11:33:33.750Z,95893.00
2023-06-29T11:35:56.463Z,95893.66
2023-06-29T11:38:17.084Z,95884.38
2023-06-29T11:40:38.010Z,95894.88
2023-06-29T11:42:58.506Z,95891.09
2023-06-29T11:45:19.445Z,95880.47
2023-06-29T11:47:39.977Z,95888.50
2023-06-29T11:50:01.724Z,95889.31
2023-06-29T11:52:22.973Z,95884.22
2023-06-29T11:54:44.350Z,95887.84
2023-06-29T11:57:05.333Z,95883.13
2023-06-29T11:59:27.921Z,95872.25
2023-06-29T12:01:48.557Z,95877.28
2023-06-29T12:04:10.430Z,95877.94
2023-06-29T12:06:31.131Z,95864.34
2023-06-29T12:08:52.585Z,95858.31
2023-06-29T12:11:20.492Z,95856.81
2023-06-29T12:13:46.841Z,95855.84
2023-06-29T12:18:36.498Z,95843.53
2023-06-29T12:21:02.077Z,95852.59
2023-06-29T12:23:23.224Z,95856.53
2023-06-29T12:25:47.388Z,95848.19
2023-06-29T12:28:08.156Z,95855.84
2023-06-29T12:30:28.740Z,95844.56
2023-06-29T12:32:50.391Z,95854.63
2023-06-29T12:35:12.759Z,95850.69
2023-06-29T12:37:33.468Z,95843.31
2023-06-29T12:39:55.417Z,95843.59
2023-06-29T12:42:16.057Z,95844.81
2023-06-29T12:44:37.371Z,95842.91
2023-06-29T12:46:57.862Z,95843.59
2023-06-29T12:49:18.657Z,95841.16
2023-06-29T12:51:39.038Z,95833.53
2023-06-29T12:53:59.373Z,95837.94
2023-06-29T12:56:20.627Z,95832.31
2023-06-29T12:58:41.522Z,95834.16
2023-06-29T13:01:01.956Z,95832.66
2023-06-29T13:03:22.971Z,95827.06
2023-06-29T13:05:43.859Z,95833.84
2023-06-29T13:08:04.993Z,95834.00
2023-06-29T13:10:25.649Z,95834.38
2023-06-29T13:12:46.039Z,95826.59
2023-06-29T13:15:07.349Z,95829.63
2023-06-29T13:17:27.948Z,95826.22
2023-06-29T13:19:49.318Z,95836.84
2023-06-29T13:22:10.447Z,95826.25
2023-06-29T13:24:31.413Z,95828.94
2023-06-29T13:26:52.018Z,95823.50
2023-06-29T13:29:12.487Z,95818.91
2023-06-29T13:31:33.346Z,95818.66
2023-06-29T13:33:53.914Z,95809.72
2023-06-29T13:36:14.293Z,95820.91
2023-06-29T13:38:34.608Z,95805.25
2023-06-29T13:40:55.102Z,95817.50
2023-06-29T13:43:15.321Z,95802.44
2023-06-29T13:45:35.630Z,95810.16
2023-06-29T13:48:00.780Z,95807.66
2023-06-29T13:50:25.500Z,95810.78
2023-06-29T13:52:49.289Z,95806.25
2023-06-29T13:55:09.647Z,95795.09
2023-06-29T13:57:30.079Z,95811.00
2023-06-29T13:59:50.592Z,95809.28
2023-06-29T14:02:11.360Z,95799.22
2023-06-29T14:04:32.263Z,95804.16
2023-06-29T14:06:53.251Z,95803.28
2023-06-29T14:09:14.834Z,95807.41
2023-06-29T14:11:35.498Z,95788.91
2023-06-29T14:13:58.323Z,95798.97
2023-06-29T14:16:19.134Z,95795.06
2023-06-29T14:18:39.876Z,95790.31
2023-06-29T14:21:00.690Z,95789.88
2023-06-29T14:23:25.528Z,95788.88
2023-06-29T14:25:46.566Z,95787.84
2023-06-29T14:28:07.525Z,95785.75
2023-06-29T14:30:28.033Z,95776.38
2023-06-29T14:32:51.223Z,95785.25
2023-06-29T14:35:12.607Z,95776.69
2023-06-29T14:37:50.639Z,95783.19
2023-06-29T14:40:11.444Z,95772.50
2023-06-29T14:42:32.178Z,95766.31
2023-06-29T14:44:52.521Z,95768.88
2023-06-29T14:47:13.080Z,95768.38
2023-06-29T14:49:33.619Z,95769.16
2023-06-29T14:51:53.984Z,95765.38
2023-06-29T14:54:14.446Z,95760.78
2023-06-29T14:56:36.114Z,95762.16
2023-06-29T14:58:56.513Z,95754.38
2023-06-29T15:01:17.473Z,95754.41
2023-06-29T15:03:39.807Z,95751.78
2023-06-29T15:06:00.570Z,95748.50
2023-06-29T15:08:21.055Z,95742.28
2023-06-29T15:10:41.381Z,95742.69
2023-06-29T15:13:01.733Z,95744.50
2023-06-29T15:15:23.536Z,95738.34
2023-06-29T15:17:44.378Z,95743.00
2023-06-29T15:20:05.991Z,95739.13
2023-06-29T15:22:26.419Z,95733.91
2023-06-29T15:24:46.858Z,95728.50
2023-06-29T15:27:07.403Z,95732.72
2023-06-29T15:29:28.078Z,95733.81
2023-06-29T15:31:48.376Z,95725.59
2023-06-29T15:34:09.262Z,95714.16
2023-06-29T15:36:29.595Z,95720.84
2023-06-29T15:38:50.501Z,95703.59
2023-06-29T15:41:11.162Z,95718.06
2023-06-29T15:43:32.307Z,95708.69
2023-06-29T15:45:53.674Z,95714.34
2023-06-29T15:48:15.766Z,95715.84
2023-06-29T15:50:36.733Z,95716.97
2023-06-29T15:52:57.537Z,95715.94
2023-06-29T15:55:18.648Z,95716.56
2023-06-29T15:57:39.603Z,95715.88
2023-06-29T16:00:01.104Z,95703.75
2023-06-29T16:02:22.041Z,95704.25
2023-06-29T16:04:42.664Z,95693.88
2023-06-29T16:07:07.654Z,95691.66
2023-06-29T16:09:32.089Z,95692.97
2023-06-29T16:11:52.736Z,95689.78
2023-06-29T16:14:13.162Z,95692.63
2023-06-29T16:16:33.560Z,95687.53
2023-06-29T16:18:54.475Z,95686.94
2023-06-29T16:21:15.282Z,95674.53
2023-06-29T16:23:37.932Z,95687.16
2023-06-29T16:25:58.540Z,95683.38
2023-06-29T16:28:19.155Z,95680.94
2023-06-29T16:30:39.818Z,95684.91
2023-06-29T16:33:00.822Z,95674.97
2023-06-29T16:35:21.484Z,95664.88
2023-06-29T16:37:44.464Z,95673.81
2023-06-29T16:40:06.027Z,95671.94
2023-06-29T16:42:26.838Z,95675.88
2023-06-29T16:44:47.383Z,95682.81
2023-06-29T16:47:07.970Z,95678.09
2023-06-29T16:49:28.783Z,95670.25
2023-06-29T16:51:49.391Z,95671.75
2023-06-29T16:54:09.780Z,95673.63
2023-06-29T16:56:30.353Z,95671.94
2023-06-29T16:58:51.119Z,95681.59
2023-06-29T17:01:11.919Z,95680.28
2023-06-29T17:03:32.750Z,95692.50
2023-06-29T17:05:53.774Z,95674.78
2023-06-29T17:08:14.625Z,95686.63
2023-06-29T17:10:35.194Z,95683.31
2023-06-29T17:12:55.677Z,95678.91
2023-06-29T17:15:16.251Z,95685.91
2023-06-29T17:17:36.788Z,95680.59
2023-06-29T17:19:58.475Z,95682.94
2023-06-29T17:22:20.152Z,95671.66
2023-06-29T17:24:41.273Z,95679.44
2023-06-29T17:27:02.211Z,95669.53
2023-06-29T17:29:23.258Z,95677.19
2023-06-29T17:31:44.163Z,95674.50
2023-06-29T17:34:05.150Z,95676.59
2023-06-29T17:36:27.826Z,95679.25
2023-06-29T17:38:48.531Z,95673.19
2023-06-29T17:41:10.337Z,95666.81
2023-06-29T17:43:31.876Z,95672.09
2023-06-29T17:45:52.546Z,95679.03
2023-06-29T17:48:13.016Z,95683.78
2023-06-29T17:50:33.821Z,95684.97
2023-06-29T17:52:54.260Z,95685.41
2023-06-29T17:55:17.049Z,95690.22
2023-06-29T17:57:38.008Z,95683.88
2023-06-29T17:59:58.728Z,95689.56
2023-06-29T18:02:19.977Z,95684.34
2023-06-29T18:04:40.942Z,95691.78
2023-06-29T18:07:01.744Z,95691.44
2023-06-29T18:09:22.316Z,95690.25
2023-06-29T18:11:43.332Z,95681.63
2023-06-29T18:14:03.825Z,95685.09
2023-06-29T18:16:25.020Z,95685.00
2023-06-29T18:18:45.872Z,95684.13
2023-06-29T18:21:06.931Z,95686.84
2023-06-29T18:23:27.585Z,95687.69
2023-06-29T18:25:48.333Z,95696.63
2023-06-29T18:28:09.289Z,95693.84
2023-06-29T18:30:29.851Z,95691.03
2023-06-29T18:32:51.302Z,95693.84
2023-06-29T18:35:12.659Z,95690.94
2023-06-29T18:37:33.430Z,95690.41
2023-06-29T18:39:54.018Z,95691.59
2023-06-29T18:42:17.643Z,95697.59
2023-06-29T18:44:38.610Z,95701.06
2023-06-29T18:47:13.628Z,95695.66
2023-06-29T18:49:49.830Z,95700.38
2023-06-29T18:52:11.952Z,95700.59
2023-06-29T18:54:34.575Z,95703.38
2023-06-29T18:56:55.179Z,95701.56
2023-06-29T18:59:16.076Z,95698.09
2023-06-29T19:01:37.020Z,95702.00
2023-06-29T19:03:57.832Z,95693.69
2023-06-29T19:06:18.741Z,95706.81
2023-06-29T19:08:39.125Z,95699.72
2023-06-29T19:11:00.037Z,95701.41
2023-06-29T19:13:20.541Z,95699.16
2023-06-29T19:15:41.845Z,95706.59
2023-06-29T19:18:02.838Z,95713.59
2023-06-29T19:20:23.856Z,95705.63
2023-06-29T19:22:44.978Z,95716.94
2023-06-29T19:25:07.800Z,95720.03
2023-06-29T19:27:28.266Z,95720.56
2023-06-29T19:29:49.109Z,95721.00
2023-06-29T19:32:10.303Z,95723.59
2023-06-29T19:34:32.100Z,95721.00
2023-06-29T19:36:52.691Z,95719.94
2023-06-29T19:39:13.403Z,95729.09
2023-06-29T19:41:33.711Z,95735.44
2023-06-29T19:43:54.010Z,95738.09
2023-06-29T19:46:14.410Z,95742.53
2023-06-29T19:48:35.166Z,95755.00
2023-06-29T19:50:55.776Z,95748.75
2023-06-29T19:53:16.561Z,95757.78
2023-06-29T19:55:37.267Z,95760.22
2023-06-29T19:57:58.582Z,95760.50
2023-06-29T20:00:19.660Z,95752.28
2023-06-29T20:02:40.266Z,95752.28
2023-06-29T20:05:01.173Z,95752.50
2023-06-29T20:07:21.676Z,95757.69
2023-06-29T20:09:42.643Z,95753.47
2023-06-29T20:12:03.463Z,95754.09
2023-06-29T20:14:24.295Z,95751.72
2023-06-29T20:16:44.850Z,95743.41
2023-06-29T20:19:05.345Z,95744.06
2023-06-29T20:21:25.663Z,95752.78
2023-06-29T20:23:51.409Z,95754.84
2023-06-29T20:26:12.502Z,95753.88
2023-06-29T20:28:32.960Z,95749.56
2023-06-29T20:30:54.049Z,95756.44
2023-06-29T20:33:14.501Z,95758.47
2023-06-29T20:35:35.277Z,95758.00
2023-06-29T20:37:58.845Z,95758.75
2023-06-29T20:40:19.238Z,95756.66
2023-06-29T20:42:39.964Z,95761.66
2023-06-29T20:45:02.645Z,95756.00
2023-06-29T20:47:24.409Z,95760.66
2023-06-29T20:49:45.184Z,95756.53
2023-06-29T20:52:06.276Z,95764.03
2023-06-29T20:54:28.166Z,95756.78
2023-06-29T20:56:48.516Z,95760.59
2023-06-29T20:59:08.935Z,95770.53
2023-06-29T21:01:29.454Z,95769.66
2023-06-29T21:03:50.356Z,95765.16
2023-06-29T21:06:11.521Z,95768.94
2023-06-29T21:08:31.948Z,95765.16
2023-06-29T21:10:52.367Z,95767.38
2023-06-29T21:13:13.191Z,95769.44
2023-06-29T21:15:34.012Z,95774.03
2023-06-29T21:17:55.596Z,95768.50
2023-06-29T21:20:16.636Z,95772.03
2023-06-29T21:22:37.673Z,95773.00
2023-06-29T21:24:58.381Z,95778.00
2023-06-29T21:27:19.825Z,95771.97
2023-06-29T21:29:44.434Z,95774.53
2023-06-29T21:32:09.776Z,95776.59
2023-06-29T21:34:31.719Z,95783.19
2023-06-29T21:36:52.671Z,95787.75
2023-06-29T21:39:13.353Z,95782.22
2023-06-29T21:41:33.718Z,95789.25
2023-06-29T21:43:54.090Z,95790.06
2023-06-29T21:46:14.381Z,95780.97
2023-06-29T21:48:37.056Z,95777.22
2023-06-29T21:50:57.917Z,95775.81
2023-06-29T21:53:18.437Z,95774.84
2023-06-29T21:55:38.667Z,95783.72
2023-06-29T21:57:59.008Z,95777.34
2023-06-29T22:00:19.690Z,95772.28
2023-06-29T22:02:40.771Z,95788.38
2023-06-29T22:05:01.209Z,95785.59
2023-06-29T22:07:21.624Z,95779.53
2023-06-29T22:09:42.039Z,95784.81
2023-06-29T22:12:03.290Z,95776.75
2023-06-29T22:14:24.427Z,95779.53
2023-06-29T22:16:45.032Z,95786.88
2023-06-29T22:19:10.566Z,95787.41
2023-06-29T22:21:31.475Z,95790.66
2023-06-29T22:23:53.390Z,95791.16
2023-06-29T22:26:14.192Z,95798.50
2023-06-29T22:28:34.722Z,95801.03
2023-06-29T22:30:55.271Z,95803.94
2023-06-29T22:33:16.059Z,95805.19
2023-06-29T22:35:36.848Z,95809.72
2023-06-29T22:37:58.206Z,95800.88
2023-06-29T22:40:19.170Z,95802.41
2023-06-29T22:42:40.099Z,95798.34
2023-06-29T22:45:00.525Z,95791.78
2023-06-29T22:47:22.428Z,95789.91
2023-06-29T22:49:43.478Z,95790.41
2023-06-29T22:52:04.447Z,95790.16
2023-06-29T22:54:24.903Z,95786.38
2023-06-29T22:56:45.334Z,95791.13
2023-06-29T22:59:10.078Z,95784.28
2023-06-29T23:01:30.841Z,95791.13
2023-06-29T23:03:51.682Z,95785.09
2023-06-29T23:06:12.576Z,95766.63
2023-06-29T23:08:33.446Z,95771.25
2023-06-29T23:10:53.751Z,95759.25
2023-06-29T23:13:17.468Z,95770.16
2023-06-29T23:15:43.251Z,95752.97
2023-06-29T23:18:04.626Z,95752.94
2023-06-29T23:20:27.272Z,95760.53
2023-06-29T23:22:48.270Z,95765.63
2023-06-29T23:25:10.239Z,95766.88
2023-06-29T23:27:30.850Z,95769.16
2023-06-29T23:29:54.037Z,95766.41
2023-06-29T23:32:14.680Z,95780.03
2023-06-29T23:34:35.061Z,95765.91
2023-06-29T23:36:55.537Z,95776.28
2023-06-29T23:39:16.937Z,95782.84
2023-06-29T23:41:37.488Z,95779.06
2023-06-29T23:44:07.468Z,95785.38
2023-06-29T23:46:28.037Z,95780.59
2023-06-29T23:48:48.939Z,95780.09
2023-06-29T23:51:10.089Z,95769.75
2023-06-29T23:53:30.897Z,95772.53
2023-06-29T23:55:51.432Z,95763.19
2023-06-29T23:58:11.816Z,95766.47
